Time;durP1;ratioP1;P1;durP2;ratioP2;P2;SDS_P1;SDS_P2;PMS_P1;PMS_P2;Temp;Humidity;BMP_temperature;BMP_pressure;BME280_temperature;BME280_humidity;BME280_pressure;Samples;Min_cycle;Max_cycle;Signal;HPM_P1;HPM_P2
2023/06/03 00:01:03;;;;;;;0.10;0.10;;;;;;;;;;6199462;23;20435;-80
2023/06/03 00:03:31;;;;;;;0.10;0.10;;;;;;;;;;6199974;23;20503;-80
2023/06/03 00:05:58;;;;;;;0.10;0.10;;;;;;;;;;6199943;23;20446;-79
2023/06/03 00:08:24;;;;;;;0.10;0.10;;;;;;;;;;6174578;23;20027;-79
2023/06/03 00:10:50;;;;;;;0.10;0.10;;;;;;;;;;6199507;23;20345;-79
2023/06/03 00:13:16;;;;;;;0.10;0.10;;;;;;;;;;6200669;23;20464;-79
2023/06/03 00:15:43;;;;;;;0.10;0.10;;;;;;;;;;6201281;23;20012;-79
2023/06/03 00:18:09;;;;;;;0.10;0.10;;;;;;;;;;6199312;23;20098;-79
2023/06/03 00:20:36;;;;;;;0.10;0.10;;;;;;;;;;6201327;23;20515;-79
2023/06/03 00:23:03;;;;;;;0.10;0.10;;;;;;;;;;6199718;23;20091;-79
2023/06/03 00:25:31;;;;;;;0.10;0.10;;;;;;;;;;6199332;23;20025;-79
2023/06/03 00:27:57;;;;;;;0.20;0.20;;;;;;;;;;6199658;23;20099;-79
2023/06/03 00:30:23;;;;;;;0.10;0.10;;;;;;;;;;6199443;23;20020;-79
2023/06/03 00:32:49;;;;;;;0.80;0.80;;;;;;;;;;6199952;23;20112;-79
2023/06/03 00:35:15;;;;;;;0.10;0.10;;;;;;;;;;6199199;23;20056;-80
2023/06/03 00:37:41;;;;;;;0.10;0.10;;;;;;;;;;6207924;23;20118;-81
2023/06/03 00:40:07;;;;;;;0.10;0.10;;;;;;;;;;6204216;23;20031;-80
2023/06/03 00:42:34;;;;;;;0.10;0.10;;;;;;;;;;6231095;23;20047;-80
2023/06/03 00:45:00;;;;;;;0.10;0.10;;;;;;;;;;6179148;23;20348;-80
2023/06/03 00:47:26;;;;;;;0.10;0.10;;;;;;;;;;6178439;23;20056;-80
2023/06/03 00:49:52;;;;;;;0.10;0.10;;;;;;;;;;6203088;23;20027;-80
2023/06/03 00:52:18;;;;;;;0.10;0.10;;;;;;;;;;6178490;23;20456;-81
2023/06/03 00:54:47;;;;;;;0.10;0.10;;;;;;;;;;6203792;23;20357;-80
2023/06/03 00:57:13;;;;;;;0.10;0.10;;;;;;;;;;6203647;23;20024;-80
2023/06/03 00:59:39;;;;;;;0.10;0.10;;;;;;;;;;6203876;23;20016;-80
2023/06/03 01:02:05;;;;;;;0.10;0.10;;;;;;;;;;6204050;23;20652;-79
2023/06/03 01:04:32;;;;;;;0.10;0.10;;;;;;;;;;6203913;23;20047;-80
2023/06/03 01:07:06;;;;;;;0.10;0.10;;;;;;;;;;6177918;23;20034;-80
2023/06/03 01:09:38;;;;;;;0.68;0.57;;;;;;;;;;6204059;23;20020;-81
2023/06/03 01:12:12;;;;;;;0.10;0.10;;;;;;;;;;6203506;23;20046;-80
2023/06/03 01:14:44;;;;;;;0.10;0.10;;;;;;;;;;6229201;23;20026;-80
2023/06/03 01:17:11;;;;;;;0.10;0.10;;;;;;;;;;6201650;23;20446;-79
2023/06/03 01:19:48;;;;;;;0.10;0.10;;;;;;;;;;6201832;23;20020;-80
2023/06/03 01:22:24;;;;;;;0.10;0.10;;;;;;;;;;6200518;23;20027;-80
2023/06/03 01:24:50;;;;;;;0.10;0.10;;;;;;;;;;6228277;23;20020;-80
2023/06/03 01:27:20;;;;;;;0.10;0.10;;;;;;;;;;6201211;23;20467;-80
2023/06/03 01:29:46;;;;;;;0.43;0.43;;;;;;;;;;6201898;23;20020;-81
2023/06/03 01:32:16;;;;;;;0.10;0.10;;;;;;;;;;6228430;23;20203;-80
2023/06/03 01:34:43;;;;;;;0.10;0.10;;;;;;;;;;6229186;23;20016;-80
2023/06/03 01:37:10;;;;;;;0.10;0.10;;;;;;;;;;6202055;23;20435;-80
2023/06/03 01:39:40;;;;;;;0.10;0.10;;;;;;;;;;6227760;23;20321;-80
2023/06/03 01:42:10;;;;;;;0.10;0.10;;;;;;;;;;6201812;23;20024;-81
2023/06/03 01:44:36;;;;;;;0.00;0.00;;;;;;;;;;6201337;23;20047;-80
2023/06/03 01:47:04;;;;;;;0.10;0.10;;;;;;;;;;6201691;23;20036;-81
2023/06/03 01:49:31;;;;;;;0.10;0.10;;;;;;;;;;6201580;23;20447;-82
2023/06/03 01:52:01;;;;;;;0.10;0.10;;;;;;;;;;6201577;23;20074;-81
2023/06/03 01:54:28;;;;;;;0.10;0.10;;;;;;;;;;6201695;23;20016;-81
2023/06/03 01:56:54;;;;;;;0.10;0.10;;;;;;;;;;6201552;23;20450;-81
2023/06/03 01:59:24;;;;;;;0.10;0.10;;;;;;;;;;6201328;23;20023;-80
2023/06/03 02:01:54;;;;;;;0.10;0.10;;;;;;;;;;6201536;23;20024;-80
2023/06/03 02:04:20;;;;;;;0.10;0.10;;;;;;;;;;6201615;23;20356;-80
2023/06/03 02:06:51;;;;;;;0.10;0.10;;;;;;;;;;6201568;23;20596;-79
2023/06/03 02:09:29;;;;;;;0.10;0.10;;;;;;;;;;6228639;23;20082;-80
2023/06/03 02:11:56;;;;;;;0.10;0.10;;;;;;;;;;6201906;23;20422;-80
2023/06/03 02:14:23;;;;;;;0.10;0.10;;;;;;;;;;6203664;23;20016;-80
2023/06/03 02:16:49;;;;;;;0.10;0.10;;;;;;;;;;6201341;23;20027;-80
2023/06/03 02:19:16;;;;;;;0.10;0.10;;;;;;;;;;6229914;23;20019;-79
2023/06/03 02:21:42;;;;;;;0.10;0.10;;;;;;;;;;6203362;23;20183;-80
2023/06/03 02:24:09;;;;;;;0.10;0.10;;;;;;;;;;6233699;23;20017;-79
2023/06/03 02:26:35;;;;;;;0.10;0.10;;;;;;;;;;6208412;23;20392;-80
2023/06/03 02:29:01;;;;;;;0.10;0.10;;;;;;;;;;6183145;23;20024;-80
2023/06/03 02:31:28;;;;;;;0.10;0.10;;;;;;;;;;6206278;23;20020;-80
2023/06/03 02:33:54;;;;;;;0.15;0.15;;;;;;;;;;6234279;23;20464;-80
2023/06/03 02:36:20;;;;;;;0.10;0.10;;;;;;;;;;6208240;23;20016;-80
2023/06/03 02:38:47;;;;;;;0.00;0.00;;;;;;;;;;6231888;23;20031;-80
2023/06/03 02:41:14;;;;;;;0.25;0.25;;;;;;;;;;6204009;23;20588;-80
2023/06/03 02:43:43;;;;;;;0.00;0.00;;;;;;;;;;6203874;23;20348;-80
2023/06/03 02:46:09;;;;;;;0.10;0.10;;;;;;;;;;6203973;23;20027;-80
2023/06/03 02:48:35;;;;;;;0.10;0.10;;;;;;;;;;6202947;23;20177;-80
2023/06/03 02:51:01;;;;;;;0.10;0.10;;;;;;;;;;6202930;23;20027;-80
2023/06/03 02:53:27;;;;;;;0.10;0.10;;;;;;;;;;6203464;23;20595;-80
2023/06/03 02:55:53;;;;;;;0.10;0.10;;;;;;;;;;6178312;23;20530;-80
2023/06/03 02:58:19;;;;;;;0.10;0.10;;;;;;;;;;6203412;23;20023;-80
2023/06/03 03:00:45;;;;;;;0.10;0.10;;;;;;;;;;6204557;23;20024;-80
2023/06/03 03:03:13;;;;;;;0.10;0.10;;;;;;;;;;6180034;23;20020;-80
2023/06/03 03:05:40;;;;;;;0.10;0.10;;;;;;;;;;6205583;23;20027;-80
2023/06/03 03:08:06;;;;;;;0.10;0.10;;;;;;;;;;6205117;23;20016;-80
2023/06/03 03:10:32;;;;;;;0.10;0.10;;;;;;;;;;6231889;23;20048;-80
2023/06/03 03:12:58;;;;;;;0.10;0.10;;;;;;;;;;6205334;23;20024;-80
2023/06/03 03:15:24;;;;;;;0.00;0.00;;;;;;;;;;6232529;23;20070;-80
2023/06/03 03:17:50;;;;;;;0.10;0.10;;;;;;;;;;6205188;23;20028;-80
2023/06/03 03:20:17;;;;;;;0.10;0.10;;;;;;;;;;6204438;23;20020;-80
2023/06/03 03:22:47;;;;;;;0.10;0.10;;;;;;;;;;6203684;23;20432;-80
2023/06/03 03:25:13;;;;;;;0.10;0.10;;;;;;;;;;6230803;23;20027;-80
2023/06/03 03:27:39;;;;;;;0.10;0.10;;;;;;;;;;6205124;23;20024;-80
2023/06/03 03:30:06;;;;;;;0.10;0.10;;;;;;;;;;6205025;23;20035;-80
2023/06/03 03:32:32;;;;;;;0.10;0.10;;;;;;;;;;6180391;23;20019;-80
2023/06/03 03:35:19;;;;;;;0.10;0.10;;;;;;;;;;6205153;23;20026;-80
2023/06/03 03:37:45;;;;;;;0.10;0.10;;;;;;;;;;6204323;23;20089;-80
2023/06/03 03:40:19;;;;;;;0.10;0.10;;;;;;;;;;6205151;23;20122;-80
2023/06/03 03:42:55;;;;;;;0.10;0.10;;;;;;;;;;6232260;23;20399;-82
2023/06/03 03:45:22;;;;;;;0.10;0.10;;;;;;;;;;6204528;23;20035;-80
2023/06/03 03:47:49;;;;;;;0.10;0.10;;;;;;;;;;6204987;23;20146;-80
2023/06/03 03:50:34;;;;;;;0.10;0.10;;;;;;;;;;6205066;23;20031;-80
2023/06/03 03:53:04;;;;;;;0.10;0.10;;;;;;;;;;6204589;23;20030;-79
2023/06/03 03:55:30;;;;;;;0.10;0.10;;;;;;;;;;6232236;23;20185;-80
2023/06/03 03:57:56;;;;;;;0.10;0.10;;;;;;;;;;6232231;23;20016;-79
2023/06/03 04:00:22;;;;;;;0.10;0.10;;;;;;;;;;6204889;23;20088;-80
2023/06/03 04:02:51;;;;;;;0.10;0.10;;;;;;;;;;6203885;23;20534;-80
2023/06/03 04:05:17;;;;;;;0.10;0.10;;;;;;;;;;6204767;23;20020;-80
2023/06/03 04:07:46;;;;;;;0.10;0.10;;;;;;;;;;6179312;23;20212;-80
2023/06/03 04:10:12;;;;;;;0.22;0.22;;;;;;;;;;6204809;23;20024;-80
2023/06/03 04:12:38;;;;;;;0.10;0.10;;;;;;;;;;6204582;23;20028;-80
2023/06/03 04:15:05;;;;;;;0.10;0.10;;;;;;;;;;6203881;23;20019;-80
2023/06/03 04:17:31;;;;;;;0.10;0.10;;;;;;;;;;6204535;23;20020;-80
2023/06/03 04:19:58;;;;;;;0.10;0.10;;;;;;;;;;6180222;23;20015;-80
2023/06/03 04:22:25;;;;;;;0.10;0.10;;;;;;;;;;6203979;23;20450;-80
2023/06/03 04:25:02;;;;;;;0.10;0.10;;;;;;;;;;6203866;23;20365;-80
2023/06/03 04:27:28;;;;;;;0.10;0.10;;;;;;;;;;6176531;23;20392;-80
2023/06/03 04:29:55;;;;;;;0.10;0.10;;;;;;;;;;6203605;23;20030;-80
2023/06/03 04:32:21;;;;;;;0.10;0.10;;;;;;;;;;6179466;23;20016;-79
2023/06/03 04:34:52;;;;;;;0.10;0.10;;;;;;;;;;6204283;23;20020;-80
2023/06/03 04:37:18;;;;;;;0.10;0.10;;;;;;;;;;6204133;23;20095;-80
2023/06/03 04:39:44;;;;;;;0.10;0.10;;;;;;;;;;6230956;23;20519;-79
2023/06/03 04:42:12;;;;;;;0.10;0.10;;;;;;;;;;6179255;23;20020;-80
2023/06/03 04:44:41;;;;;;;0.10;0.10;;;;;;;;;;6204297;23;20031;-80
2023/06/03 04:47:11;;;;;;;0.10;0.10;;;;;;;;;;6204416;23;20429;-79
2023/06/03 04:49:38;;;;;;;0.30;0.30;;;;;;;;;;6204027;23;20031;-80
2023/06/03 04:52:05;;;;;;;0.10;0.10;;;;;;;;;;6203787;23;20093;-80
2023/06/03 04:54:31;;;;;;;1.25;1.00;;;;;;;;;;6203864;23;20046;-80
2023/06/03 04:56:57;;;;;;;0.10;0.10;;;;;;;;;;6204168;23;20279;-79
2023/06/03 04:59:23;;;;;;;0.10;0.10;;;;;;;;;;6231426;23;20012;-79
2023/06/03 05:01:50;;;;;;;0.38;0.38;;;;;;;;;;6203353;23;20145;-79
2023/06/03 05:04:19;;;;;;;0.10;0.10;;;;;;;;;;6203834;23;20020;-80
2023/06/03 05:06:46;;;;;;;0.10;0.10;;;;;;;;;;6203853;23;20048;-80
2023/06/03 05:09:12;;;;;;;0.10;0.10;;;;;;;;;;6204375;23;20066;-80
2023/06/03 05:11:38;;;;;;;0.10;0.10;;;;;;;;;;6204580;23;20220;-79
2023/06/03 05:14:06;;;;;;;0.10;0.10;;;;;;;;;;6203733;23;20031;-80
2023/06/03 05:16:32;;;;;;;0.10;0.10;;;;;;;;;;6203635;23;20476;-80
2023/06/03 05:18:58;;;;;;;0.00;0.00;;;;;;;;;;6203867;23;20031;-80
2023/06/03 05:21:24;;;;;;;0.10;0.10;;;;;;;;;;6203575;23;20105;-81
2023/06/03 05:23:50;;;;;;;0.10;0.10;;;;;;;;;;6199857;23;20431;-81
2023/06/03 05:26:16;;;;;;;0.10;0.10;;;;;;;;;;6203450;23;20024;-79
2023/06/03 05:28:42;;;;;;;0.20;0.20;;;;;;;;;;6202492;23;20047;-82
2023/06/03 05:31:08;;;;;;;0.10;0.10;;;;;;;;;;6202276;23;20082;-80
2023/06/03 05:33:40;;;;;;;0.10;0.10;;;;;;;;;;6229528;23;20456;-80
2023/06/03 05:36:06;;;;;;;0.10;0.10;;;;;;;;;;6203525;23;20408;-80
2023/06/03 05:38:32;;;;;;;0.10;0.10;;;;;;;;;;6203554;23;20301;-80
2023/06/03 05:40:59;;;;;;;270.83;66.18;;;;;;;;;;6175298;23;20670;-80
2023/06/03 05:43:25;;;;;;;261.75;63.10;;;;;;;;;;6225841;23;20986;-80
2023/06/03 05:45:51;;;;;;;259.02;63.15;;;;;;;;;;6199734;23;20393;-80
2023/06/03 05:48:17;;;;;;;255.82;60.45;;;;;;;;;;6177103;23;21131;-81
2023/06/03 05:50:51;;;;;;;254.95;60.15;;;;;;;;;;6228612;23;20358;-81
2023/06/03 05:53:21;;;;;;;253.80;59.90;;;;;;;;;;6202232;23;20439;-81
2023/06/03 05:55:48;;;;;;;254.55;60.10;;;;;;;;;;6201771;23;20424;-81
2023/06/03 05:58:14;;;;;;;256.15;60.10;;;;;;;;;;6201576;23;20400;-80
2023/06/03 06:00:41;;;;;;;255.98;60.58;;;;;;;;;;6200964;23;20370;-81
2023/06/03 06:03:07;;;;;;;255.32;60.13;;;;;;;;;;6200434;23;20432;-81
2023/06/03 06:05:33;;;;;;;255.18;59.17;;;;;;;;;;6200066;23;20769;-81
2023/06/03 06:07:59;;;;;;;256.70;59.55;;;;;;;;;;6201011;23;20767;-81
2023/06/03 06:10:25;;;;;;;254.10;58.80;;;;;;;;;;6176203;23;21309;-80
2023/06/03 06:12:51;;;;;;;253.80;59.47;;;;;;;;;;6200548;23;21019;-81
2023/06/03 06:15:17;;;;;;;254.55;59.88;;;;;;;;;;6198238;23;20856;-81
2023/06/03 06:17:44;;;;;;;253.45;59.20;;;;;;;;;;6199933;23;20912;-80
2023/06/03 06:20:10;;;;;;;251.77;58.70;;;;;;;;;;6199243;23;20417;-82
2023/06/03 06:22:37;;;;;;;254.40;59.90;;;;;;;;;;6228003;23;20443;-82
2023/06/03 06:25:08;;;;;;;252.90;59.25;;;;;;;;;;6199260;23;20374;-82
2023/06/03 06:27:34;;;;;;;251.43;58.95;;;;;;;;;;6200083;23;20374;-82
2023/06/03 06:30:01;;;;;;;254.20;59.90;;;;;;;;;;6199488;23;20378;-81
2023/06/03 06:32:27;;;;;;;251.85;58.78;;;;;;;;;;6198046;23;20377;-81
2023/06/03 06:34:54;;;;;;;252.48;59.08;;;;;;;;;;6199467;23;20448;-82
2023/06/03 06:37:21;;;;;;;251.93;58.65;;;;;;;;;;6199703;23;20394;-83
2023/06/03 06:39:47;;;;;;;250.55;58.55;;;;;;;;;;6226328;23;20978;-82
2023/06/03 06:42:14;;;;;;;250.38;58.22;;;;;;;;;;6226203;23;20362;-82
2023/06/03 06:44:47;;;;;;;252.00;58.75;;;;;;;;;;6226584;23;20828;-82
2023/06/03 06:47:15;;;;;;;251.20;58.72;;;;;;;;;;6199749;23;20405;-84
2023/06/03 06:49:41;;;;;;;251.30;58.35;;;;;;;;;;6200044;23;20373;-86
2023/06/03 06:52:12;;;;;;;251.77;58.35;;;;;;;;;;6201274;23;20366;-81
2023/06/03 06:54:38;;;;;;;253.02;59.05;;;;;;;;;;6202678;23;20366;-82
2023/06/03 06:57:05;;;;;;;254.30;59.40;;;;;;;;;;6201210;23;20390;-82
2023/06/03 06:59:31;;;;;;;254.57;59.00;;;;;;;;;;6200426;23;20395;-82
2023/06/03 07:01:57;;;;;;;256.00;59.55;;;;;;;;;;6200751;23;20833;-82
2023/06/03 07:04:24;;;;;;;258.25;59.60;;;;;;;;;;6202383;23;20507;-83
2023/06/03 07:06:50;;;;;;;260.45;60.70;;;;;;;;;;6200109;23;20385;-82
2023/06/03 07:09:16;;;;;;;259.02;60.17;;;;;;;;;;6201821;23;20771;-82
2023/06/03 07:11:45;;;;;;;261.65;60.40;;;;;;;;;;6201945;23;20373;-82
2023/06/03 07:14:12;;;;;;;262.80;60.85;;;;;;;;;;6201701;23;20373;-82
2023/06/03 07:16:38;;;;;;;263.50;61.53;;;;;;;;;;6200079;23;20417;-82
2023/06/03 07:19:05;;;;;;;263.20;60.75;;;;;;;;;;6201111;23;20370;-82
2023/06/03 07:21:33;;;;;;;263.10;61.00;;;;;;;;;;6199985;23;20369;-82
2023/06/03 07:23:59;;;;;;;263.30;61.58;;;;;;;;;;6228636;23;20443;-83
2023/06/03 07:26:27;;;;;;;264.60;61.10;;;;;;;;;;6201228;23;20378;-83
2023/06/03 07:28:56;;;;;;;261.58;60.30;;;;;;;;;;6201634;23;20849;-83
2023/06/03 07:31:22;;;;;;;261.05;59.95;;;;;;;;;;6200794;23;20388;-82
2023/06/03 07:33:52;;;;;;;255.15;58.60;;;;;;;;;;6228392;23;20446;-82
2023/06/03 07:36:22;;;;;;;258.25;60.25;;;;;;;;;;6227952;23;20370;-83
2023/06/03 07:39:05;;;;;;;259.73;60.22;;;;;;;;;;6200892;23;20452;-83
2023/06/03 07:41:39;;;;;;;252.50;57.95;;;;;;;;;;6200976;23;20446;-87
2023/06/03 07:44:06;;;;;;;257.63;59.05;;;;;;;;;;6201189;23;20366;-82
2023/06/03 07:46:37;;;;;;;229.05;53.03;;;;;;;;;;6201298;23;20389;-82
2023/06/03 07:49:03;;;;;;;161.33;37.67;;;;;;;;;;6202985;23;20412;-83
2023/06/03 07:51:29;;;;;;;221.43;51.00;;;;;;;;;;6203881;23;20372;-84
2023/06/03 07:53:56;;;;;;;152.97;40.33;;;;;;;;;;6178062;23;20416;-80
2023/06/03 07:56:22;;;;;;;154.68;41.15;;;;;;;;;;6203047;23;20393;-79
2023/06/03 07:58:48;;;;;;;33.67;8.25;;;;;;;;;;6229683;23;20362;-77
2023/06/03 08:01:16;;;;;;;149.73;40.65;;;;;;;;;;6230279;23;20390;-79
2023/06/03 08:03:42;;;;;;;151.40;40.40;;;;;;;;;;6202952;23;20453;-79
2023/06/03 08:06:08;;;;;;;153.98;40.67;;;;;;;;;;6200465;23;20372;-79
2023/06/03 08:08:35;;;;;;;148.48;38.63;;;;;;;;;;6201733;23;20381;-78
2023/06/03 08:11:02;;;;;;;157.57;41.63;;;;;;;;;;6203056;23;20421;-77
2023/06/03 08:13:28;;;;;;;154.02;40.42;;;;;;;;;;6199114;23;20374;-80
2023/06/03 08:15:54;;;;;;;152.68;40.05;;;;;;;;;;6200252;23;20362;-79
2023/06/03 08:18:39;;;;;;;158.65;41.22;;;;;;;;;;6203416;23;20418;-79
2023/06/03 08:21:05;;;;;;;6.35;5.85;;;;;;;;;;6202574;23;20369;-82
2023/06/03 08:23:32;;;;;;;7.22;6.70;;;;;;;;;;6226336;23;20867;-81
2023/06/03 08:25:59;;;;;;;16.77;7.95;;;;;;;;;;6203166;23;20390;-82
2023/06/03 08:28:26;;;;;;;13.75;8.50;;;;;;;;;;6228214;23;20370;-79
2023/06/03 08:30:52;;;;;;;268.03;62.37;;;;;;;;;;6201698;23;20378;-79
2023/06/03 08:33:18;;;;;;;266.85;62.38;;;;;;;;;;6229402;23;20804;-81
2023/06/03 08:35:44;;;;;;;266.88;62.88;;;;;;;;;;6234082;23;20362;-81
2023/06/03 08:38:11;;;;;;;265.67;62.42;;;;;;;;;;6227300;23;20397;-83
2023/06/03 08:40:46;;;;;;;237.52;56.30;;;;;;;;;;6226443;23;20369;-82
2023/06/03 08:43:12;;;;;;;235.07;55.20;;;;;;;;;;6201757;23;20408;-80
2023/06/03 08:45:45;;;;;;;196.23;46.10;;;;;;;;;;6228556;23;20377;-81
2023/06/03 08:48:15;;;;;;;210.57;49.60;;;;;;;;;;6202877;23;20975;-80
2023/06/03 08:50:43;;;;;;;229.57;53.17;;;;;;;;;;6230030;23;20362;-81
2023/06/03 08:53:11;;;;;;;167.63;42.42;;;;;;;;;;6177206;23;20374;-80
2023/06/03 08:55:38;;;;;;;148.68;40.30;;;;;;;;;;6177973;23;20381;-81
2023/06/03 08:58:16;;;;;;;150.63;40.90;;;;;;;;;;6227466;23;20504;-80
2023/06/03 09:00:43;;;;;;;150.82;40.53;;;;;;;;;;6228613;23;20378;-81
2023/06/03 09:03:11;;;;;;;152.43;41.58;;;;;;;;;;6198340;23;20385;-81
2023/06/03 09:05:38;;;;;;;150.68;41.58;;;;;;;;;;6199460;23;20374;-81
2023/06/03 09:08:05;;;;;;;151.17;42.57;;;;;;;;;;6198294;23;21043;-81
2023/06/03 09:10:32;;;;;;;149.20;40.95;;;;;;;;;;6199585;23;20440;-81
2023/06/03 09:12:58;;;;;;;146.15;39.75;;;;;;;;;;6201782;23;20752;-85
2023/06/03 09:15:25;;;;;;;151.50;41.47;;;;;;;;;;6201802;23;20374;-83
2023/06/03 09:17:51;;;;;;;146.90;41.00;;;;;;;;;;6202425;23;20420;-82
2023/06/03 09:20:17;;;;;;;143.27;40.47;;;;;;;;;;6201232;23;20405;-80
2023/06/03 09:22:46;;;;;;;137.85;39.00;;;;;;;;;;6195311;23;20402;-78
2023/06/03 09:25:12;;;;;;;140.80;40.03;;;;;;;;;;6224501;23;20667;-81
2023/06/03 09:27:40;;;;;;;146.77;40.42;;;;;;;;;;6199330;23;20697;-81
2023/06/03 09:30:06;;;;;;;151.50;41.00;;;;;;;;;;6199770;23;20401;-81
2023/06/03 09:32:35;;;;;;;145.93;40.60;;;;;;;;;;6225553;23;20834;-82
2023/06/03 09:35:04;;;;;;;144.45;40.60;;;;;;;;;;6199957;23;20420;-82
2023/06/03 09:37:34;;;;;;;144.88;40.28;;;;;;;;;;6200050;23;20400;-77
2023/06/03 09:40:00;;;;;;;148.43;40.92;;;;;;;;;;6225669;23;20406;-78
2023/06/03 09:42:43;;;;;;;134.27;39.13;;;;;;;;;;6198197;23;20381;-76
2023/06/03 09:45:23;;;;;;;131.13;38.43;;;;;;;;;;6197842;23;20397;-77
2023/06/03 09:47:49;;;;;;;131.80;38.30;;;;;;;;;;6198319;23;20373;-79
2023/06/03 09:50:15;;;;;;;129.65;38.50;;;;;;;;;;6226120;23;20377;-77
2023/06/03 09:52:41;;;;;;;131.65;38.00;;;;;;;;;;6228789;23;20362;-79
2023/06/03 09:55:08;;;;;;;134.13;38.38;;;;;;;;;;6200843;23;20370;-79
2023/06/03 09:57:34;;;;;;;135.15;38.72;;;;;;;;;;6201684;23;20459;-76
2023/06/03 10:00:09;;;;;;;132.88;38.28;;;;;;;;;;6201873;23;20369;-77
2023/06/03 10:02:37;;;;;;;133.00;38.00;;;;;;;;;;6200448;23;20377;-78
2023/06/03 10:05:03;;;;;;;128.23;37.87;;;;;;;;;;6201222;23;20978;-77
2023/06/03 10:07:29;;;;;;;129.17;37.63;;;;;;;;;;6201512;23;20556;-77
2023/06/03 10:10:05;;;;;;;129.10;37.60;;;;;;;;;;6201042;23;20423;-77
2023/06/03 10:12:33;;;;;;;130.40;37.85;;;;;;;;;;6201633;23;20381;-77
2023/06/03 10:14:59;;;;;;;132.43;38.10;;;;;;;;;;6201177;23;20409;-77
2023/06/03 10:17:26;;;;;;;130.60;37.72;;;;;;;;;;6200398;23;20398;-77
2023/06/03 10:19:52;;;;;;;136.60;38.97;;;;;;;;;;6174269;23;20373;-78
2023/06/03 10:22:19;;;;;;;131.82;37.97;;;;;;;;;;6199169;23;20370;-77
2023/06/03 10:24:49;;;;;;;134.68;39.03;;;;;;;;;;6199859;23;20366;-79
2023/06/03 10:27:18;;;;;;;131.95;38.03;;;;;;;;;;6225385;23;20355;-77
2023/06/03 10:29:44;;;;;;;130.68;38.05;;;;;;;;;;6199388;23;20837;-78
2023/06/03 10:32:17;;;;;;;133.75;39.03;;;;;;;;;;6199393;23;20913;-77
2023/06/03 10:34:44;;;;;;;130.30;37.67;;;;;;;;;;6195706;23;20857;-79
2023/06/03 10:37:12;;;;;;;132.48;37.90;;;;;;;;;;6227589;23;20464;-78
2023/06/03 10:39:38;;;;;;;129.60;38.13;;;;;;;;;;6227548;23;20382;-80
2023/06/03 10:42:06;;;;;;;138.20;39.40;;;;;;;;;;6227793;23;20875;-76
2023/06/03 10:44:33;;;;;;;136.68;38.65;;;;;;;;;;6200737;23;20396;-76
2023/06/03 10:47:02;;;;;;;135.18;39.13;;;;;;;;;;6227658;23;20867;-78
2023/06/03 10:49:48;;;;;;;134.40;38.40;;;;;;;;;;6201605;23;20912;-77
2023/06/03 10:52:20;;;;;;;129.35;38.53;;;;;;;;;;6199595;23;20378;-77
2023/06/03 10:55:02;;;;;;;132.20;38.20;;;;;;;;;;6201404;23;20453;-78
2023/06/03 10:57:35;;;;;;;132.23;38.00;;;;;;;;;;6200891;23;20416;-79
2023/06/03 11:00:03;;;;;;;132.38;38.40;;;;;;;;;;6200733;23;20610;-74
2023/06/03 11:02:49;;;;;;;126.68;37.40;;;;;;;;;;6201293;23;20369;-75
2023/06/03 11:05:22;;;;;;;126.85;37.50;;;;;;;;;;6201647;23;20769;-75
2023/06/03 11:07:49;;;;;;;129.95;37.85;;;;;;;;;;6201588;23;20369;-75
2023/06/03 11:10:35;;;;;;;126.95;37.80;;;;;;;;;;6201710;23;20465;-74
2023/06/03 11:13:01;;;;;;;126.57;37.90;;;;;;;;;;6201938;23;20366;-76
2023/06/03 11:15:46;;;;;;;127.00;37.58;;;;;;;;;;6228538;23;20408;-75
2023/06/03 11:18:16;;;;;;;126.07;37.47;;;;;;;;;;6201830;23;20393;-75
2023/06/03 11:20:42;;;;;;;123.43;36.78;;;;;;;;;;6176860;23;20769;-74
2023/06/03 11:23:09;;;;;;;127.17;37.77;;;;;;;;;;6202479;23;21115;-74
2023/06/03 11:25:38;;;;;;;121.72;36.65;;;;;;;;;;6231153;23;20374;-75
2023/06/03 11:28:23;;;;;;;126.90;37.40;;;;;;;;;;6204116;23;20899;-74
2023/06/03 11:30:55;;;;;;;136.77;38.33;;;;;;;;;;6231617;23;20753;-75
2023/06/03 11:33:21;;;;;;;130.05;37.88;;;;;;;;;;6204124;23;20396;-74
2023/06/03 11:35:47;;;;;;;126.82;37.33;;;;;;;;;;6203841;23;20427;-74
2023/06/03 11:38:14;;;;;;;129.73;37.60;;;;;;;;;;6203371;23;20416;-74
2023/06/03 11:40:44;;;;;;;135.27;38.22;;;;;;;;;;6204151;23;20929;-75
2023/06/03 11:43:10;;;;;;;129.80;37.50;;;;;;;;;;6203615;23;20374;-75
2023/06/03 11:45:38;;;;;;;125.68;36.78;;;;;;;;;;6203534;23;20928;-74
2023/06/03 11:48:07;;;;;;;127.35;37.05;;;;;;;;;;6230154;23;20370;-74
2023/06/03 11:50:34;;;;;;;127.97;37.72;;;;;;;;;;6203337;23;20417;-75
2023/06/03 11:53:00;;;;;;;130.02;37.63;;;;;;;;;;6203541;23;20370;-75
2023/06/03 11:55:27;;;;;;;126.78;37.10;;;;;;;;;;6203690;23;20369;-75
2023/06/03 11:57:56;;;;;;;131.00;37.50;;;;;;;;;;6203235;23;20401;-75
2023/06/03 12:00:22;;;;;;;132.25;37.90;;;;;;;;;;6203435;23;21016;-75
2023/06/03 12:02:48;;;;;;;126.20;37.33;;;;;;;;;;6203186;23;20366;-75
2023/06/03 12:05:19;;;;;;;131.13;37.90;;;;;;;;;;6203177;23;20370;-74
2023/06/03 12:08:01;;;;;;;130.52;37.72;;;;;;;;;;6177890;23;20374;-74
2023/06/03 12:10:27;;;;;;;132.30;38.08;;;;;;;;;;6230180;23;20357;-75
2023/06/03 12:12:54;;;;;;;136.27;38.33;;;;;;;;;;6178142;23;20389;-74
2023/06/03 12:15:21;;;;;;;131.68;38.22;;;;;;;;;;6229886;23;20366;-74
2023/06/03 12:17:47;;;;;;;131.73;38.20;;;;;;;;;;6203060;23;20901;-74
2023/06/03 12:20:26;;;;;;;128.73;37.58;;;;;;;;;;6203383;23;20389;-75
2023/06/03 12:23:03;;;;;;;127.55;37.25;;;;;;;;;;6202824;23;20405;-75
2023/06/03 12:25:29;;;;;;;129.35;37.53;;;;;;;;;;6203051;23;20370;-75
2023/06/03 12:27:56;;;;;;;125.75;37.50;;;;;;;;;;6202615;23;20939;-75
2023/06/03 12:30:33;;;;;;;127.60;37.30;;;;;;;;;;6202965;23;20739;-74
2023/06/03 12:32:59;;;;;;;129.95;37.90;;;;;;;;;;6202550;23;20389;-74
2023/06/03 12:35:26;;;;;;;124.57;36.67;;;;;;;;;;6230251;23;20716;-75
2023/06/03 12:38:04;;;;;;;129.02;37.28;;;;;;;;;;6202574;23;20385;-75
2023/06/03 12:40:31;;;;;;;124.25;36.83;;;;;;;;;;6202670;23;20468;-74
2023/06/03 12:42:58;;;;;;;126.25;37.00;;;;;;;;;;6203241;23;20403;-75
2023/06/03 12:45:25;;;;;;;129.48;37.45;;;;;;;;;;6202831;23;20374;-75
2023/06/03 12:47:52;;;;;;;128.98;37.33;;;;;;;;;;6202885;23;20379;-75
2023/06/03 12:50:21;;;;;;;127.30;37.65;;;;;;;;;;6202636;23;20400;-75
2023/06/03 12:52:47;;;;;;;127.80;37.77;;;;;;;;;;6202622;23;20424;-74
2023/06/03 12:55:15;;;;;;;130.45;38.05;;;;;;;;;;6229900;23;20926;-75
2023/06/03 12:57:42;;;;;;;126.70;37.40;;;;;;;;;;6229520;23;20448;-75
2023/06/03 13:00:15;;;;;;;124.47;36.97;;;;;;;;;;6203135;23;20390;-74
2023/06/03 13:02:42;;;;;;;129.73;37.70;;;;;;;;;;6202988;23;20461;-74
2023/06/03 13:05:08;;;;;;;130.60;38.28;;;;;;;;;;6229298;23;20368;-74
2023/06/03 13:07:35;;;;;;;132.35;38.38;;;;;;;;;;6202691;23;20512;-75
2023/06/03 13:10:03;;;;;;;131.57;38.17;;;;;;;;;;6202741;23;20812;-75
2023/06/03 13:12:29;;;;;;;128.80;37.53;;;;;;;;;;6202667;23;20378;-74
2023/06/03 13:14:56;;;;;;;129.60;37.47;;;;;;;;;;6202898;23;20377;-74
2023/06/03 13:17:22;;;;;;;132.77;37.85;;;;;;;;;;6202276;23;20567;-74
2023/06/03 13:19:48;;;;;;;131.90;38.03;;;;;;;;;;6201499;23;20691;-74
2023/06/03 13:22:17;;;;;;;131.65;37.80;;;;;;;;;;6202113;23;20836;-75
2023/06/03 13:24:44;;;;;;;134.27;38.33;;;;;;;;;;6229737;23;20455;-75
2023/06/03 13:27:11;;;;;;;140.32;39.10;;;;;;;;;;6202116;23;20829;-75
2023/06/03 13:29:37;;;;;;;137.13;38.30;;;;;;;;;;6203176;23;21227;-76
2023/06/03 13:32:04;;;;;;;134.98;38.65;;;;;;;;;;6202216;23;20422;-75
2023/06/03 13:34:31;;;;;;;132.07;38.20;;;;;;;;;;6202038;23;20370;-75
2023/06/03 13:36:57;;;;;;;128.48;37.35;;;;;;;;;;6202597;23;20394;-75
2023/06/03 13:39:24;;;;;;;126.72;37.17;;;;;;;;;;6202355;23;20404;-75
2023/06/03 13:41:50;;;;;;;125.73;37.17;;;;;;;;;;6201804;23;20932;-75
2023/06/03 13:44:16;;;;;;;127.85;37.53;;;;;;;;;;6201756;23;20369;-75
2023/06/03 13:46:42;;;;;;;130.35;37.55;;;;;;;;;;6202187;23;20911;-75
2023/06/03 13:49:09;;;;;;;130.07;37.75;;;;;;;;;;6202021;23;20708;-75
2023/06/03 13:51:36;;;;;;;132.13;37.72;;;;;;;;;;6202306;23;20378;-75
2023/06/03 13:54:03;;;;;;;133.65;37.72;;;;;;;;;;6202264;23;20392;-75
2023/06/03 13:56:29;;;;;;;134.25;38.47;;;;;;;;;;6201945;23;20396;-75
2023/06/03 13:58:55;;;;;;;141.20;38.88;;;;;;;;;;6229166;23;20369;-75
2023/06/03 14:01:21;;;;;;;146.65;39.58;;;;;;;;;;6201977;23;20469;-75
2023/06/03 14:03:47;;;;;;;148.05;40.25;;;;;;;;;;6228281;23;20361;-75
2023/06/03 14:06:13;;;;;;;143.82;39.63;;;;;;;;;;6202227;23;20440;-75
2023/06/03 14:08:39;;;;;;;153.13;41.08;;;;;;;;;;6202315;23;20448;-75
2023/06/03 14:11:09;;;;;;;144.20;40.05;;;;;;;;;;6201932;23;20370;-75
2023/06/03 14:13:35;;;;;;;150.60;40.60;;;;;;;;;;6201753;23;20378;-76
2023/06/03 14:16:02;;;;;;;147.48;40.53;;;;;;;;;;6228526;23;20408;-75
2023/06/03 14:18:28;;;;;;;147.10;40.05;;;;;;;;;;6201509;23;20447;-75
2023/06/03 14:20:54;;;;;;;141.65;39.20;;;;;;;;;;6202563;23;20381;-75
2023/06/03 14:23:20;;;;;;;133.35;38.13;;;;;;;;;;6201704;23;20370;-75